createdAt,value
2022-12-05T00:00:27.106Z,1.75
2022-12-05T00:02:32.466Z,1.71
2022-12-05T00:04:37.620Z,1.75
2022-12-05T00:06:46.484Z,1.74
2022-12-05T00:08:52.368Z,1.72
2022-12-05T00:10:57.641Z,1.70
2022-12-05T00:13:02.905Z,1.71
2022-12-05T00:15:13.186Z,1.71
2022-12-05T00:17:18.159Z,1.69
2022-12-05T00:19:23.299Z,1.69
2022-12-05T00:21:31.920Z,1.64
2022-12-05T00:23:39.807Z,1.68
2022-12-05T00:25:45.977Z,1.74
2022-12-05T00:27:50.906Z,1.72
2022-12-05T00:29:56.252Z,1.69
2022-12-05T00:32:01.751Z,1.64
2022-12-05T00:34:07.308Z,1.65
2022-12-05T00:36:16.466Z,1.62
2022-12-05T00:38:21.468Z,1.63
2022-12-05T00:40:29.412Z,1.53
2022-12-05T00:42:34.356Z,1.52
2022-12-05T00:44:39.294Z,1.58
2022-12-05T00:46:44.560Z,1.58
2022-12-05T00:48:50.048Z,1.56
2022-12-05T00:51:04.273Z,1.57
2022-12-05T00:53:09.996Z,1.53
2022-12-05T00:55:14.943Z,1.70
2022-12-05T00:57:22.582Z,1.71
2022-12-05T00:59:27.681Z,1.65
2022-12-05T01:01:35.778Z,1.63
2022-12-05T01:03:41.955Z,1.66
2022-12-05T01:05:46.902Z,1.62
2022-12-05T01:07:51.913Z,1.59
2022-12-05T01:09:57.676Z,1.62
2022-12-05T01:12:02.748Z,1.59
2022-12-05T01:14:10.433Z,1.61
2022-12-05T01:16:19.732Z,1.59
2022-12-05T01:18:25.464Z,1.52
2022-12-05T01:20:30.659Z,1.55
2022-12-05T01:22:35.954Z,1.50
2022-12-05T01:24:41.283Z,1.50
2022-12-05T01:26:47.419Z,1.48
2022-12-05T01:28:54.480Z,1.44
2022-12-05T01:31:06.606Z,1.38
2022-12-05T01:33:13.077Z,1.36
2022-12-05T01:35:18.543Z,1.35
2022-12-05T01:37:23.702Z,1.29
2022-12-05T01:39:28.824Z,1.29
2022-12-05T01:41:36.827Z,1.27
2022-12-05T01:43:59.871Z,1.22
2022-12-05T01:46:09.341Z,1.20
2022-12-05T01:48:21.141Z,1.23
2022-12-05T01:50:26.583Z,1.26
2022-12-05T01:52:34.106Z,1.29
2022-12-05T01:54:41.051Z,1.31
2022-12-05T01:56:52.824Z,1.31
2022-12-05T01:59:00.089Z,1.28
2022-12-05T02:01:08.050Z,1.29
2022-12-05T02:03:21.404Z,1.21
2022-12-05T02:05:31.096Z,1.25
2022-12-05T02:07:37.872Z,1.23
2022-12-05T02:09:42.874Z,1.26
2022-12-05T02:11:55.428Z,1.19
2022-12-05T02:14:22.403Z,1.18
2022-12-05T02:16:48.966Z,1.20
2022-12-05T02:19:12.764Z,1.15
2022-12-05T02:21:57.408Z,1.29
2022-12-05T02:24:35.518Z,1.30
2022-12-05T02:27:04.424Z,1.28
2022-12-05T02:30:05.021Z,1.27
2022-12-05T02:32:17.464Z,1.26
2022-12-05T02:34:31.850Z,1.22
2022-12-05T02:36:43.542Z,1.27
2022-12-05T02:38:58.919Z,1.30
2022-12-05T02:41:15.222Z,1.27
2022-12-05T02:43:25.784Z,1.29
2022-12-05T02:45:37.821Z,1.32
2022-12-05T02:47:49.861Z,1.31
2022-12-05T02:49:56.768Z,1.28
2022-12-05T02:52:04.086Z,1.25
2022-12-05T02:54:16.002Z,1.31
2022-12-05T02:56:22.438Z,1.31
2022-12-05T02:58:33.996Z,1.31
2022-12-05T03:00:46.644Z,1.28
2022-12-05T03:02:54.187Z,1.28
2022-12-05T03:05:17.756Z,1.30
2022-12-05T03:07:26.710Z,1.30
2022-12-05T03:09:38.092Z,1.29
2022-12-05T03:11:50.376Z,1.34
2022-12-05T03:13:58.803Z,1.36
2022-12-05T03:16:15.428Z,1.29
2022-12-05T03:18:26.942Z,1.30
2022-12-05T03:20:36.696Z,1.31
2022-12-05T03:22:49.054Z,1.30
2022-12-05T03:24:54.282Z,1.30
2022-12-05T03:27:08.930Z,1.30
2022-12-05T03:29:29.658Z,1.31
2022-12-05T03:31:47.461Z,1.33
2022-12-05T03:33:57.945Z,1.32
2022-12-05T03:36:09.355Z,1.33
2022-12-05T03:38:18.755Z,1.35
2022-12-05T03:40:35.096Z,1.36
2022-12-05T03:42:49.534Z,1.37
2022-12-05T03:45:00.329Z,1.40
2022-12-05T03:47:14.543Z,1.38
2022-12-05T03:49:33.613Z,1.39
2022-12-05T03:51:46.338Z,1.42
2022-12-05T03:53:56.787Z,1.43
2022-12-05T03:56:08.252Z,1.43
2022-12-05T03:58:20.942Z,1.46
2022-12-05T04:00:27.678Z,1.47
2022-12-05T04:02:45.740Z,1.45
2022-12-05T04:04:58.032Z,1.45
2022-12-05T04:07:07.457Z,1.46
2022-12-05T04:09:18.598Z,1.49
2022-12-05T04:11:28.799Z,1.50
2022-12-05T04:13:37.683Z,1.52
2022-12-05T04:15:55.739Z,1.52
2022-12-05T04:18:04.003Z,1.56
2022-12-05T04:20:41.082Z,1.59
2022-12-05T04:22:47.238Z,1.58
2022-12-05T04:25:05.583Z,1.61
2022-12-05T04:27:28.320Z,1.61
2022-12-05T04:29:39.849Z,1.65
2022-12-05T04:31:50.343Z,1.60
2022-12-05T04:34:05.263Z,1.62
2022-12-05T04:36:16.973Z,1.65
2022-12-05T04:38:28.272Z,1.68
2022-12-05T04:40:39.978Z,1.69
2022-12-05T04:42:46.622Z,1.68
2022-12-05T04:44:56.179Z,1.68
2022-12-05T04:47:06.266Z,1.70
2022-12-05T04:49:18.431Z,1.72
2022-12-05T04:51:27.078Z,1.72
2022-12-05T04:53:34.051Z,1.72
2022-12-05T04:55:42.865Z,1.72
2022-12-05T04:57:55.912Z,1.73
2022-12-05T05:00:01.076Z,1.74
2022-12-05T05:02:11.348Z,1.71
2022-12-05T05:04:24.713Z,1.71
2022-12-05T05:06:30.695Z,1.72
2022-12-05T05:08:36.142Z,1.73
2022-12-05T05:10:49.900Z,1.72
2022-12-05T05:12:55.032Z,1.74
2022-12-05T05:14:59.976Z,1.76
2022-12-05T05:17:05.786Z,1.76
2022-12-05T05:19:13.473Z,1.82
2022-12-05T05:21:24.808Z,1.83
2022-12-05T05:23:29.805Z,1.87
2022-12-05T05:25:34.785Z,1.85
2022-12-05T05:27:39.745Z,1.88
2022-12-05T05:29:44.966Z,1.88
2022-12-05T05:31:50.098Z,1.86
2022-12-05T05:33:57.684Z,1.86
2022-12-05T05:36:06.995Z,1.86
2022-12-05T05:38:14.530Z,1.87
2022-12-05T05:40:20.332Z,1.85
2022-12-05T05:42:25.295Z,1.85
2022-12-05T05:44:30.590Z,1.88
2022-12-05T05:46:38.790Z,1.88
2022-12-05T05:48:44.147Z,1.88
2022-12-05T05:50:49.100Z,1.87
2022-12-05T05:52:54.097Z,1.91
2022-12-05T05:55:01.640Z,1.89
2022-12-05T05:57:06.834Z,1.93
2022-12-05T05:59:12.861Z,1.89
2022-12-05T06:01:21.593Z,1.92
2022-12-05T06:03:26.642Z,1.93
2022-12-05T06:05:31.703Z,1.94
2022-12-05T06:07:36.710Z,1.96
2022-12-05T06:09:42.247Z,1.96
2022-12-05T06:11:49.868Z,1.97
2022-12-05T06:13:55.380Z,1.98
2022-12-05T06:16:00.526Z,1.99
2022-12-05T06:18:05.512Z,1.98
2022-12-05T06:20:12.067Z,1.97
2022-12-05T06:22:17.041Z,1.98
2022-12-05T06:24:21.972Z,1.98
2022-12-05T06:26:27.056Z,1.98
2022-12-05T06:28:35.275Z,1.99
2022-12-05T06:30:41.610Z,1.96
2022-12-05T06:32:47.126Z,1.98
2022-12-05T06:34:52.145Z,1.96
2022-12-05T06:36:57.125Z,1.98
2022-12-05T06:39:03.363Z,2.00
2022-12-05T06:41:09.659Z,1.98
2022-12-05T06:43:14.944Z,1.99
2022-12-05T06:45:22.830Z,2.01
2022-12-05T06:47:27.796Z,2.00
2022-12-05T06:49:36.366Z,1.99
2022-12-05T06:51:43.368Z,1.98
2022-12-05T06:53:48.512Z,1.98
2022-12-05T06:56:01.580Z,1.97
2022-12-05T06:58:06.896Z,1.97
2022-12-05T07:00:26.637Z,2.02
2022-12-05T07:02:34.655Z,1.99
2022-12-05T07:04:39.669Z,2.00
2022-12-05T07:06:50.508Z,1.99
2022-12-05T07:08:56.460Z,2.01
2022-12-05T07:11:02.248Z,2.04
2022-12-05T07:13:08.580Z,2.02
2022-12-05T07:15:15.076Z,2.02
2022-12-05T07:17:20.853Z,2.04
2022-12-05T07:19:28.377Z,2.05
2022-12-05T07:21:33.712Z,2.06
2022-12-05T07:23:39.088Z,2.08
2022-12-05T07:25:44.405Z,2.10
2022-12-05T07:27:49.488Z,2.12
2022-12-05T07:29:54.633Z,2.13
2022-12-05T07:31:59.710Z,2.17
2022-12-05T07:34:04.682Z,2.17
2022-12-05T07:36:16.342Z,2.17
2022-12-05T07:38:21.259Z,2.18
2022-12-05T07:40:26.222Z,2.24
2022-12-05T07:42:31.142Z,2.28
2022-12-05T07:44:36.279Z,2.34
2022-12-05T07:46:42.234Z,2.32
2022-12-05T07:48:48.084Z,2.31
2022-12-05T07:50:53.220Z,2.33
2022-12-05T07:53:01.143Z,2.37
2022-12-05T07:55:07.148Z,2.39
2022-12-05T07:57:12.588Z,2.40
2022-12-05T07:59:17.548Z,2.43
2022-12-05T08:01:26.351Z,2.48
2022-12-05T08:03:31.335Z,2.49
2022-12-05T08:05:37.760Z,2.51
2022-12-05T08:07:43.341Z,2.54
2022-12-05T08:09:50.893Z,2.60
2022-12-05T08:11:55.861Z,2.62
2022-12-05T08:14:01.503Z,2.63
2022-12-05T08:16:08.172Z,2.67
2022-12-05T08:18:13.154Z,2.70
2022-12-05T08:20:18.500Z,2.70
2022-12-05T08:22:23.426Z,2.73
2022-12-05T08:24:28.784Z,2.74
2022-12-05T08:26:38.699Z,2.77
2022-12-05T08:28:45.084Z,2.80
2022-12-05T08:30:50.117Z,2.80
2022-12-05T08:32:55.133Z,2.82
2022-12-05T08:35:00.117Z,2.80
2022-12-05T08:37:05.286Z,2.77
2022-12-05T08:39:16.015Z,2.80
2022-12-05T08:41:21.774Z,2.81
2022-12-05T08:43:29.339Z,2.81
2022-12-05T08:45:34.286Z,2.80
2022-12-05T08:47:39.490Z,2.86
2022-12-05T08:49:44.443Z,2.88
2022-12-05T08:51:49.614Z,2.88
2022-12-05T08:53:56.413Z,2.86
2022-12-05T08:56:04.200Z,2.92
2022-12-05T08:58:10.335Z,2.92
2022-12-05T09:00:19.844Z,2.93
2022-12-05T09:02:24.945Z,2.91
2022-12-05T09:04:29.931Z,2.94
2022-12-05T09:06:36.565Z,2.93
2022-12-05T09:08:42.309Z,2.96
2022-12-05T09:10:47.284Z,2.92
2022-12-05T09:12:53.136Z,2.94
2022-12-05T09:14:59.077Z,2.96
2022-12-05T09:17:07.790Z,2.97
2022-12-05T09:19:16.600Z,2.98
2022-12-05T09:21:24.302Z,2.98
2022-12-05T09:23:29.272Z,2.97
2022-12-05T09:25:34.236Z,3.00
2022-12-05T09:27:39.734Z,2.97
2022-12-05T09:29:45.038Z,2.96
2022-12-05T09:31:54.260Z,3.00
2022-12-05T09:34:01.880Z,2.99
2022-12-05T09:36:08.136Z,3.04
2022-12-05T09:38:13.120Z,3.05
2022-12-05T09:40:20.465Z,3.08
2022-12-05T09:42:38.801Z,3.05
2022-12-05T09:45:07.192Z,3.11
2022-12-05T09:47:26.339Z,3.12
2022-12-05T09:49:35.849Z,3.05
2022-12-05T09:51:52.192Z,3.07
2022-12-05T09:54:00.341Z,3.08
2022-12-05T09:56:09.227Z,3.08
2022-12-05T09:58:25.247Z,3.12
2022-12-05T10:00:33.336Z,3.12
2022-12-05T10:02:53.281Z,3.14
2022-12-05T10:05:08.120Z,3.19
2022-12-05T10:07:20.499Z,3.16
2022-12-05T10:09:46.884Z,3.21
2022-12-05T10:12:01.230Z,3.24
2022-12-05T10:14:16.235Z,3.21
2022-12-05T10:16:28.811Z,3.19
2022-12-05T10:18:41.252Z,3.27
2022-12-05T10:20:54.797Z,3.28
2022-12-05T10:23:06.143Z,3.33
2022-12-05T10:25:15.538Z,3.30
2022-12-05T10:27:26.580Z,3.33
2022-12-05T10:29:36.346Z,3.34
2022-12-05T10:31:43.935Z,3.30
2022-12-05T10:33:54.854Z,3.31
2022-12-05T10:36:02.692Z,3.36
2022-12-05T10:38:10.339Z,3.38
2022-12-05T10:40:17.035Z,3.36
2022-12-05T10:42:31.988Z,3.42
2022-12-05T10:44:37.624Z,3.46
2022-12-05T10:46:43.247Z,3.48
2022-12-05T10:48:48.509Z,3.49
2022-12-05T10:50:57.474Z,3.51
2022-12-05T10:53:08.048Z,3.52
2022-12-05T10:55:20.837Z,3.48
2022-12-05T10:57:30.477Z,3.50
2022-12-05T10:59:50.251Z,3.42
2022-12-05T11:01:59.287Z,3.39
2022-12-05T11:04:20.749Z,3.47
2022-12-05T11:06:30.490Z,3.49
2022-12-05T11:09:03.733Z,3.53
2022-12-05T11:11:07.285Z,3.67
2022-12-05T11:13:19.544Z,3.72
2022-12-05T11:15:28.064Z,3.82
2022-12-05T11:17:37.907Z,4.03
2022-12-05T11:19:43.298Z,4.11
2022-12-05T11:21:48.518Z,4.22
2022-12-05T11:23:56.619Z,4.36
2022-12-05T11:26:02.020Z,4.38
2022-12-05T11:28:36.470Z,4.37
2022-12-05T11:30:41.257Z,4.30
2022-12-05T11:32:46.349Z,4.31
2022-12-05T11:34:59.703Z,4.26
2022-12-05T11:37:12.445Z,4.14
2022-12-05T11:39:20.099Z,4.15
2022-12-05T11:41:48.058Z,4.07
2022-12-05T11:44:31.530Z,4.06
2022-12-05T11:46:54.147Z,4.17
2022-12-05T11:49:16.758Z,4.15
2022-12-05T11:51:40.139Z,4.09
2022-12-05T11:54:48.776Z,4.08
2022-12-05T11:56:59.779Z,4.10
2022-12-05T11:59:37.897Z,4.08
2022-12-05T12:01:56.276Z,4.03
2022-12-05T12:04:29.646Z,4.01
2022-12-05T12:06:42.126Z,3.94
2022-12-05T12:09:05.914Z,3.95
2022-12-05T12:11:21.859Z,3.86
2022-12-05T12:13:48.121Z,3.87
2022-12-05T12:16:08.494Z,3.83
2022-12-05T12:18:37.504Z,3.87
2022-12-05T12:21:00.248Z,3.94
2022-12-05T12:23:29.343Z,3.88
2022-12-05T12:25:46.078Z,3.94
2022-12-05T12:28:07.594Z,4.05
2022-12-05T12:30:23.021Z,3.95
2022-12-05T12:32:41.394Z,3.93
2022-12-05T12:35:21.761Z,3.89
2022-12-05T12:37:39.002Z,3.81
2022-12-05T12:39:53.842Z,3.74
2022-12-05T12:42:32.806Z,3.72
2022-12-05T12:45:24.797Z,3.70
2022-12-05T12:47:43.483Z,3.66
2022-12-05T12:50:04.205Z,3.65
2022-12-05T12:52:17.209Z,3.64
2022-12-05T12:55:13.792Z,3.65
2022-12-05T12:57:26.928Z,3.67
2022-12-05T12:59:54.472Z,3.66
2022-12-05T13:02:06.024Z,3.63
2022-12-05T13:04:18.835Z,3.64
2022-12-05T13:06:29.400Z,3.55
2022-12-05T13:08:43.061Z,3.55
2022-12-05T13:10:50.757Z,3.49
2022-12-05T13:12:58.647Z,3.51
2022-12-05T13:15:08.451Z,3.49
2022-12-05T13:17:21.743Z,3.52
2022-12-05T13:19:37.461Z,3.55
2022-12-05T13:21:42.623Z,3.55
2022-12-05T13:23:55.020Z,3.53
2022-12-05T13:26:03.440Z,3.59
2022-12-05T13:28:28.335Z,3.59
2022-12-05T13:30:54.558Z,3.61
2022-12-05T13:33:02.405Z,3.60
2022-12-05T13:35:35.061Z,3.64
2022-12-05T13:38:02.463Z,3.60
2022-12-05T13:40:22.479Z,3.58
2022-12-05T13:42:32.031Z,3.64
2022-12-05T13:44:43.323Z,3.62
2022-12-05T13:46:52.674Z,3.64
2022-12-05T13:49:07.118Z,3.65
2022-12-05T13:51:30.429Z,3.70
2022-12-05T13:53:42.206Z,3.67
2022-12-05T13:56:00.768Z,3.71
2022-12-05T13:58:26.713Z,3.68
2022-12-05T14:00:37.544Z,3.72
2022-12-05T14:02:54.247Z,3.72
2022-12-05T14:05:02.540Z,3.74
2022-12-05T14:07:13.164Z,3.74
2022-12-05T14:09:32.818Z,3.75
2022-12-05T14:11:37.775Z,3.81
2022-12-05T14:13:46.389Z,3.79
2022-12-05T14:15:53.842Z,3.79
2022-12-05T14:18:18.408Z,3.72
2022-12-05T14:20:32.853Z,3.75
2022-12-05T14:23:15.322Z,3.72
2022-12-05T14:25:35.611Z,3.69
2022-12-05T14:27:51.851Z,3.66
2022-12-05T14:30:06.241Z,3.67
2022-12-05T14:32:26.392Z,3.62
2022-12-05T14:34:34.041Z,3.65
2022-12-05T14:36:40.991Z,3.61
2022-12-05T14:38:48.627Z,3.65
2022-12-05T14:40:53.889Z,3.67
2022-12-05T14:43:03.100Z,3.67
2022-12-05T14:45:30.433Z,3.63
2022-12-05T14:47:37.037Z,3.66
2022-12-05T14:50:04.425Z,3.66
2022-12-05T14:52:14.456Z,3.64
2022-12-05T14:54:23.136Z,3.63
2022-12-05T14:56:30.579Z,3.64
2022-12-05T14:58:43.664Z,3.64
2022-12-05T15:00:56.756Z,3.62
2022-12-05T15:03:02.487Z,3.64
2022-12-05T15:05:24.914Z,3.64
2022-12-05T15:07:37.111Z,3.63
2022-12-05T15:10:00.116Z,3.62
2022-12-05T15:12:10.221Z,3.64
2022-12-05T15:14:26.745Z,3.62
2022-12-05T15:16:36.046Z,3.63
2022-12-05T15:18:46.839Z,3.61
2022-12-05T15:20:58.648Z,3.58
2022-12-05T15:23:03.610Z,3.57
2022-12-05T15:25:32.355Z,3.58
2022-12-05T15:27:37.664Z,3.58
2022-12-05T15:29:44.058Z,3.59
2022-12-05T15:31:52.148Z,3.57
2022-12-05T15:34:01.055Z,3.55
2022-12-05T15:36:07.852Z,3.61
2022-12-05T15:38:27.260Z,3.57
2022-12-05T15:40:40.646Z,3.57
2022-12-05T15:42:47.930Z,3.53
2022-12-05T15:44:53.017Z,3.58
2022-12-05T15:46:59.920Z,3.55
2022-12-05T15:49:23.747Z,3.55
2022-12-05T15:51:37.822Z,3.51
2022-12-05T15:53:48.504Z,3.51
2022-12-05T15:56:01.576Z,3.51
2022-12-05T15:58:13.372Z,3.51
2022-12-05T16:00:22.700Z,3.51
2022-12-05T16:02:39.556Z,3.53
2022-12-05T16:04:50.544Z,3.55
2022-12-05T16:07:00.873Z,3.53
2022-12-05T16:09:11.866Z,3.52
2022-12-05T16:11:21.187Z,3.51
2022-12-05T16:13:29.808Z,3.51
2022-12-05T16:15:35.565Z,3.52
2022-12-05T16:17:45.408Z,3.55
2022-12-05T16:19:51.134Z,3.53
2022-12-05T16:22:05.682Z,3.51
2022-12-05T16:24:20.487Z,3.52
2022-12-05T16:26:28.242Z,3.51
2022-12-05T16:28:36.575Z,3.58
2022-12-05T16:30:42.224Z,3.55
2022-12-05T16:32:49.993Z,3.57
2022-12-05T16:34:55.079Z,3.62
2022-12-05T16:37:00.599Z,3.63
2022-12-05T16:39:09.090Z,3.62
2022-12-05T16:41:15.458Z,3.58
2022-12-05T16:43:43.963Z,3.57
2022-12-05T16:45:51.116Z,3.58
2022-12-05T16:48:01.907Z,3.57
2022-12-05T16:50:32.889Z,3.57
2022-12-05T16:52:37.903Z,3.52
2022-12-05T16:54:43.076Z,3.52
2022-12-05T16:56:48.586Z,3.49
2022-12-05T16:58:56.532Z,3.47
2022-12-05T17:01:07.864Z,3.51
2022-12-05T17:03:33.995Z,3.51
2022-12-05T17:05:40.102Z,3.48
2022-12-05T17:07:45.115Z,3.51
2022-12-05T17:09:50.833Z,3.53
2022-12-05T17:12:04.243Z,3.50
2022-12-05T17:14:16.317Z,3.48
2022-12-05T17:16:23.045Z,3.46
2022-12-05T17:18:31.465Z,3.48
2022-12-05T17:20:39.839Z,3.44
2022-12-05T17:22:45.731Z,3.42
2022-12-05T17:24:50.663Z,3.43
2022-12-05T17:26:55.674Z,3.43
2022-12-05T17:29:00.624Z,3.45
2022-12-05T17:31:08.741Z,3.45
2022-12-05T17:33:16.191Z,3.45
2022-12-05T17:35:23.315Z,3.46
2022-12-05T17:37:28.519Z,3.44
2022-12-05T17:39:33.449Z,3.41
2022-12-05T17:41:38.977Z,3.41
2022-12-05T17:43:44.170Z,3.41
2022-12-05T17:45:49.533Z,3.43
2022-12-05T17:47:57.449Z,3.42
2022-12-05T17:50:02.359Z,3.38
2022-12-05T17:52:23.297Z,3.37
2022-12-05T17:54:28.691Z,3.36
2022-12-05T17:56:33.610Z,3.36
2022-12-05T17:58:38.829Z,3.37
2022-12-05T18:00:45.347Z,3.37
2022-12-05T18:02:50.737Z,3.35
2022-12-05T18:04:58.676Z,3.35
2022-12-05T18:07:03.803Z,3.35
2022-12-05T18:09:09.628Z,3.34
2022-12-05T18:11:16.086Z,3.35
2022-12-05T18:13:21.240Z,3.35
2022-12-05T18:15:26.335Z,3.35
2022-12-05T18:17:31.616Z,3.35
2022-12-05T18:19:37.381Z,3.37
2022-12-05T18:24:10.335Z,3.39
2022-12-05T18:26:15.356Z,3.42
2022-12-05T18:28:20.935Z,3.41
2022-12-05T18:30:25.927Z,3.39
2022-12-05T18:32:31.014Z,3.42
2022-12-05T18:34:36.060Z,3.43
2022-12-05T18:36:41.027Z,3.47
2022-12-05T18:38:53.825Z,3.47
2022-12-05T18:41:02.860Z,3.46
2022-12-05T18:43:07.880Z,3.46
2022-12-05T18:45:14.254Z,3.45
2022-12-05T18:47:20.321Z,3.46
2022-12-05T18:49:25.626Z,3.44
2022-12-05T18:51:30.587Z,3.44
2022-12-05T18:53:35.758Z,3.45
2022-12-05T18:56:13.023Z,3.46
2022-12-05T18:58:08.495Z,3.48
2022-12-05T19:00:16.210Z,3.50
2022-12-05T19:02:24.527Z,3.49
2022-12-05T19:04:31.059Z,3.54
2022-12-05T19:06:39.849Z,3.51
2022-12-05T19:08:45.840Z,3.52
2022-12-05T19:10:53.375Z,3.57
2022-12-05T19:12:58.338Z,3.56
2022-12-05T19:15:03.324Z,3.57
2022-12-05T19:17:08.296Z,3.57
2022-12-05T19:19:17.472Z,3.60
2022-12-05T19:21:22.395Z,3.58
2022-12-05T19:23:28.121Z,3.58
2022-12-05T19:25:33.193Z,3.60
2022-12-05T19:27:40.714Z,3.61
2022-12-05T19:29:45.643Z,3.61
2022-12-05T19:31:50.664Z,3.62
2022-12-05T19:33:58.448Z,3.62
2022-12-05T19:36:10.111Z,3.58
2022-12-05T19:38:15.025Z,3.59
2022-12-05T19:40:20.188Z,3.61
2022-12-05T19:42:25.103Z,3.61
2022-12-05T19:44:32.924Z,3.62
2022-12-05T19:46:39.330Z,3.62
2022-12-05T19:48:45.000Z,3.62
2022-12-05T19:50:57.452Z,3.60
2022-12-05T19:53:02.834Z,3.61
2022-12-05T19:55:08.835Z,3.60
2022-12-05T19:57:14.309Z,3.61
2022-12-05T19:59:20.210Z,3.65
2022-12-05T20:01:30.863Z,3.65
2022-12-05T20:03:35.846Z,3.66
2022-12-05T20:05:40.787Z,3.63
2022-12-05T20:07:45.869Z,3.65
2022-12-05T20:09:50.868Z,3.63
2022-12-05T20:11:56.210Z,3.64
2022-12-05T20:14:03.348Z,3.65
2022-12-05T20:16:12.363Z,3.65
2022-12-05T20:18:19.957Z,3.64
2022-12-05T20:20:24.899Z,3.63
2022-12-05T20:22:31.095Z,3.63
2022-12-05T20:24:36.080Z,3.64
2022-12-05T20:26:43.955Z,3.67
2022-12-05T20:28:49.871Z,3.67
2022-12-05T20:30:54.949Z,3.67
2022-12-05T20:32:59.919Z,3.66
2022-12-05T20:35:08.948Z,3.68
2022-12-05T20:37:13.891Z,3.65
2022-12-05T20:39:20.804Z,3.68
2022-12-05T20:41:25.961Z,3.71
2022-12-05T20:43:31.476Z,3.69
2022-12-05T20:45:37.168Z,3.72
2022-12-05T20:47:42.100Z,3.72
2022-12-05T20:49:48.823Z,3.70
2022-12-05T20:51:57.176Z,3.70
2022-12-05T20:54:05.880Z,3.72
2022-12-05T20:56:14.072Z,3.73
2022-12-05T20:58:19.821Z,3.75
2022-12-05T21:00:25.108Z,3.74
2022-12-05T21:02:30.202Z,3.76
2022-12-05T21:04:39.037Z,3.76
2022-12-05T21:06:46.880Z,3.76
2022-12-05T21:08:55.870Z,3.80
2022-12-05T21:11:00.814Z,3.82
2022-12-05T21:13:06.075Z,3.84
2022-12-05T21:15:13.343Z,3.83
2022-12-05T21:17:18.281Z,3.82
2022-12-05T21:19:23.886Z,3.85
2022-12-05T21:21:34.054Z,3.84
2022-12-05T21:23:39.042Z,3.85
2022-12-05T21:25:47.454Z,3.84
2022-12-05T21:27:52.421Z,3.87
2022-12-05T21:29:58.223Z,3.89
2022-12-05T21:32:03.403Z,3.90
2022-12-05T21:34:11.214Z,3.86
2022-12-05T21:36:16.679Z,3.87
2022-12-05T21:38:22.043Z,3.83
2022-12-05T21:40:27.040Z,3.84
2022-12-05T21:42:35.321Z,3.86
2022-12-05T21:44:40.659Z,3.88
2022-12-05T21:46:45.725Z,3.88
2022-12-05T21:48:51.371Z,3.92
2022-12-05T21:50:57.004Z,3.87
2022-12-05T21:53:02.189Z,3.86
2022-12-05T21:55:08.461Z,3.86
2022-12-05T21:57:13.806Z,3.83
2022-12-05T21:59:21.718Z,3.83
2022-12-05T22:01:30.377Z,3.84
2022-12-05T22:03:35.433Z,3.86
2022-12-05T22:05:40.969Z,3.85
2022-12-05T22:07:46.759Z,3.83
2022-12-05T22:09:51.715Z,3.80
2022-12-05T22:11:57.468Z,3.80
2022-12-05T22:14:02.819Z,3.77
2022-12-05T22:16:11.648Z,3.77
2022-12-05T22:20:23.683Z,3.78
2022-12-05T22:22:28.633Z,3.76
2022-12-05T22:24:33.608Z,3.78
2022-12-05T22:26:38.942Z,3.75
2022-12-05T22:28:44.015Z,3.80
2022-12-05T22:30:50.087Z,3.81
2022-12-05T22:32:59.232Z,3.81
2022-12-05T22:35:04.600Z,3.85
2022-12-05T22:37:10.077Z,3.83
2022-12-05T22:39:15.566Z,3.81
2022-12-05T22:41:23.583Z,3.82
2022-12-05T22:43:30.122Z,3.80
2022-12-05T22:45:35.072Z,3.77
2022-12-05T22:47:40.211Z,3.77
2022-12-05T22:49:48.443Z,3.77
2022-12-05T22:51:53.375Z,3.73
2022-12-05T22:53:59.459Z,3.77
2022-12-05T22:56:07.038Z,3.77
2022-12-05T22:58:12.122Z,3.75
2022-12-05T23:00:18.788Z,3.74
2022-12-05T23:02:24.581Z,3.72
2022-12-05T23:04:30.472Z,3.74
2022-12-05T23:06:39.335Z,3.77
2022-12-05T23:08:49.944Z,3.76
2022-12-05T23:10:59.640Z,3.75
2022-12-05T23:13:05.242Z,3.74
2022-12-05T23:15:13.358Z,3.73
2022-12-05T23:17:18.997Z,3.73
2022-12-05T23:19:24.332Z,3.77
2022-12-05T23:21:32.552Z,3.74
2022-12-05T23:23:41.203Z,3.77
2022-12-05T23:25:46.675Z,3.79
2022-12-05T23:27:52.084Z,3.76
2022-12-05T23:29:58.265Z,3.78
2022-12-05T23:32:03.820Z,3.77
2022-12-05T23:34:10.800Z,3.75
2022-12-05T23:36:16.175Z,3.73
2022-12-05T23:38:21.315Z,3.74
2022-12-05T23:40:29.460Z,3.74
2022-12-05T23:42:34.574Z,3.74
2022-12-05T23:44:40.236Z,3.75
2022-12-05T23:46:45.455Z,3.76
2022-12-05T23:48:51.064Z,3.74
2022-12-05T23:51:02.519Z,3.75
2022-12-05T23:53:07.618Z,3.75
2022-12-05T23:55:13.557Z,3.74
2022-12-05T23:57:21.364Z,3.77
2022-12-05T23:59:27.424Z,3.75
